createdAt,value
2022-11-12T00:00:35.526Z,7.04
2022-11-12T00:03:29.081Z,6.77
2022-11-12T00:06:27.508Z,7.09
2022-11-12T00:09:19.392Z,7.04
2022-11-12T00:12:18.224Z,6.76
2022-11-12T00:15:11.612Z,6.90
2022-11-12T00:28:25.706Z,6.70
2022-11-12T00:31:24.537Z,6.26
2022-11-12T00:34:16.333Z,6.37
2022-11-12T00:37:15.521Z,6.50
2022-11-12T00:40:09.284Z,6.41
2022-11-12T00:54:07.486Z,6.12
2022-11-12T00:57:05.501Z,5.52
2022-11-12T00:59:57.285Z,6.23
2022-11-12T01:02:55.518Z,5.74
2022-11-12T01:05:47.155Z,6.01
2022-11-12T01:08:47.537Z,6.31
2022-11-12T01:22:18.493Z,5.90
2022-11-12T01:25:10.534Z,6.23
2022-11-12T01:28:08.515Z,5.96
2022-11-12T01:31:10.630Z,5.87
2022-11-12T01:34:11.549Z,5.73
2022-11-12T01:47:42.490Z,5.74
2022-11-12T01:50:39.701Z,5.72
2022-11-12T01:53:46.500Z,5.58
2022-11-12T01:56:42.367Z,5.51
2022-11-12T01:59:49.496Z,5.25
2022-11-12T02:16:50.461Z,5.01
2022-11-12T02:19:49.215Z,5.06
2022-11-12T02:22:43.236Z,4.99
2022-11-12T02:25:42.490Z,4.88
2022-11-12T02:28:34.617Z,4.83
2022-11-12T02:41:49.454Z,4.47
2022-11-12T02:44:48.518Z,4.49
2022-11-12T02:47:40.577Z,4.12
2022-11-12T02:50:38.502Z,4.42
2022-11-12T02:53:30.336Z,4.50
2022-11-12T03:10:11.512Z,5.23
2022-11-12T03:13:04.173Z,5.42
2022-11-12T03:16:06.481Z,5.45
2022-11-12T03:18:58.236Z,5.33
2022-11-12T03:35:48.505Z,4.99
2022-11-12T03:38:40.509Z,5.12
2022-11-12T03:41:38.479Z,4.93
2022-11-12T03:44:29.910Z,4.92
2022-11-12T03:47:27.489Z,4.91
2022-11-12T03:50:23.327Z,4.68
2022-11-12T04:03:37.470Z,4.64
2022-11-12T04:06:35.521Z,5.08
2022-11-12T04:09:27.460Z,5.07
2022-11-12T04:12:25.487Z,5.01
2022-11-12T04:15:17.334Z,4.83
2022-11-12T04:28:32.458Z,3.92
2022-11-12T04:31:30.477Z,3.89
2022-11-12T04:34:22.090Z,3.89
2022-11-12T04:37:23.636Z,3.68
2022-11-12T04:40:18.982Z,3.77
2022-11-12T04:43:21.500Z,3.47
2022-11-12T04:56:52.469Z,3.43
2022-11-12T04:59:44.323Z,3.20
2022-11-12T05:02:42.485Z,3.25
2022-11-12T05:05:34.460Z,3.20
2022-11-12T05:08:32.488Z,3.28
2022-11-12T05:22:03.496Z,3.28
2022-11-12T05:24:55.390Z,3.36
2022-11-12T05:27:54.175Z,2.93
2022-11-12T05:30:47.774Z,3.03
2022-11-12T05:50:28.238Z,3.03
2022-11-12T05:53:32.491Z,2.89
2022-11-12T05:56:24.261Z,2.79
2022-11-12T05:59:22.513Z,2.99
2022-11-12T06:02:14.669Z,2.87
2022-11-12T06:05:14.436Z,3.17
2022-11-12T06:15:19.428Z,2.85
2022-11-12T06:18:18.462Z,2.81
2022-11-12T06:21:11.924Z,2.95
2022-11-12T06:24:11.467Z,2.99
2022-11-12T06:27:03.504Z,2.78
2022-11-12T06:30:02.156Z,3.01
2022-11-12T06:43:36.450Z,2.71
2022-11-12T06:46:28.563Z,2.77
2022-11-12T06:49:26.465Z,2.68
2022-11-12T06:52:18.249Z,3.04
2022-11-12T06:55:16.459Z,2.91
2022-11-12T07:08:47.445Z,2.69
2022-11-12T07:11:39.529Z,2.51
2022-11-12T07:14:37.449Z,2.86
2022-11-12T07:17:30.065Z,2.64
2022-11-12T07:20:28.529Z,2.75
2022-11-12T07:23:20.510Z,2.86
2022-11-12T07:36:16.404Z,2.72
2022-11-12T07:41:46.750Z,2.87
2022-11-12T07:44:38.472Z,2.82
2022-11-12T07:47:30.599Z,3.38
2022-11-12T07:50:28.474Z,4.26
2022-11-12T08:03:57.464Z,3.80
2022-11-12T08:06:49.247Z,3.53
2022-11-12T08:09:47.465Z,3.53
2022-11-12T08:12:39.338Z,3.28
2022-11-12T08:15:38.428Z,3.11
2022-11-12T08:29:09.468Z,3.44
2022-11-12T08:32:01.362Z,3.12
2022-11-12T08:35:00.206Z,3.17
2022-11-12T08:37:56.234Z,2.99
2022-11-12T08:40:55.424Z,2.92
2022-11-12T08:43:47.166Z,2.68
2022-11-12T08:57:02.408Z,3.24
2022-11-12T09:00:02.052Z,3.73
2022-11-12T09:02:54.328Z,4.02
2022-11-12T09:05:53.422Z,4.19
2022-11-12T09:08:45.214Z,3.97
2022-11-12T09:22:24.415Z,4.96
2022-11-12T09:25:22.419Z,4.51
2022-11-12T09:28:16.589Z,4.46
2022-11-12T09:31:15.441Z,4.17
2022-11-12T09:34:07.436Z,3.56
2022-11-12T09:51:04.428Z,3.76
2022-11-12T09:53:58.734Z,3.62
2022-11-12T09:56:58.428Z,3.64
2022-11-12T09:59:50.088Z,3.99
2022-11-12T10:03:06.458Z,3.97
2022-11-12T10:06:10.636Z,3.97
2022-11-12T10:16:24.421Z,4.02
2022-11-12T10:19:52.709Z,3.94
2022-11-12T10:23:17.434Z,4.19
2022-11-12T10:26:16.197Z,4.03
2022-11-12T10:29:43.494Z,3.89
2022-11-12T10:43:29.158Z,4.43
2022-11-12T10:46:26.608Z,4.27
2022-11-12T10:49:31.429Z,4.40
2022-11-12T10:52:24.705Z,4.29
2022-11-12T10:55:27.431Z,4.40
2022-11-12T11:09:25.468Z,4.16
2022-11-12T11:12:27.309Z,4.05
2022-11-12T11:15:29.417Z,3.92
2022-11-12T11:18:21.463Z,3.99
2022-11-12T11:22:03.412Z,4.26
2022-11-12T11:25:18.145Z,4.13
2022-11-12T11:38:37.456Z,3.92
2022-11-12T11:41:59.428Z,3.86
2022-11-12T11:45:04.368Z,3.80
2022-11-12T11:48:18.151Z,3.68
2022-11-12T12:05:31.402Z,3.97
2022-11-12T12:08:51.425Z,4.28
2022-11-12T12:11:58.122Z,4.59
2022-11-12T12:15:16.423Z,4.56
2022-11-12T12:29:29.421Z,4.14
2022-11-12T12:32:30.628Z,4.22
2022-11-12T12:35:35.414Z,4.18
2022-11-12T12:38:39.405Z,4.38
2022-11-12T12:41:50.404Z,4.50
2022-11-12T12:44:51.774Z,5.22
2022-11-12T12:58:07.385Z,5.32
2022-11-12T13:01:09.466Z,5.48
2022-11-12T13:04:02.484Z,5.68
2022-11-12T13:07:04.511Z,5.55
2022-11-12T13:10:43.505Z,5.32
2022-11-12T13:24:00.394Z,5.48
2022-11-12T13:27:02.405Z,5.10
2022-11-12T13:29:54.568Z,5.28
2022-11-12T13:33:01.415Z,5.35
2022-11-12T13:36:23.779Z,5.19
2022-11-12T13:49:52.393Z,5.15
2022-11-12T13:52:54.697Z,4.80
2022-11-12T13:55:49.096Z,4.91
2022-11-12T13:58:48.433Z,5.10
2022-11-12T14:01:23.915Z,5.00
2022-11-12T14:04:27.416Z,5.08
2022-11-12T14:18:13.400Z,4.99
2022-11-12T14:21:10.806Z,4.70
2022-11-12T14:24:10.433Z,4.86
2022-11-12T14:27:02.314Z,5.23
2022-11-12T14:30:23.399Z,5.34
2022-11-12T14:44:11.446Z,5.36
2022-11-12T14:47:05.195Z,5.46
2022-11-12T14:50:04.430Z,5.32
2022-11-12T14:53:05.025Z,5.51
2022-11-12T14:56:09.146Z,5.24
2022-11-12T14:59:04.197Z,5.78
2022-11-12T15:12:27.398Z,6.56
2022-11-12T15:15:28.414Z,7.06
2022-11-12T15:18:24.881Z,6.99
2022-11-12T15:21:32.408Z,6.66
2022-11-12T15:24:30.204Z,6.62
2022-11-12T15:37:49.370Z,6.23
2022-11-12T15:40:56.086Z,6.12
2022-11-12T15:43:49.321Z,7.00
2022-11-12T15:46:48.421Z,6.81
2022-11-12T15:49:48.303Z,7.01
2022-11-12T16:03:38.371Z,7.54
2022-11-12T16:06:36.499Z,8.89
2022-11-12T16:09:28.504Z,8.67
2022-11-12T16:12:27.411Z,8.52
2022-11-12T16:15:26.780Z,8.06
2022-11-12T16:18:25.418Z,7.79
2022-11-12T16:21:20.956Z,7.54
2022-11-12T16:31:09.449Z,6.44
2022-11-12T16:34:01.452Z,6.25
2022-11-12T16:37:02.405Z,6.00
2022-11-12T16:39:53.896Z,6.35
2022-11-12T16:42:52.629Z,7.40
2022-11-12T16:45:45.483Z,7.86
2022-11-12T16:59:00.373Z,7.77
2022-11-12T17:01:58.922Z,7.44
2022-11-12T17:04:50.877Z,7.71
2022-11-12T17:07:49.418Z,7.77
2022-11-12T17:10:41.712Z,7.95
2022-11-12T17:23:56.372Z,7.42
2022-11-12T17:26:54.389Z,6.98
2022-11-12T17:29:46.187Z,7.78
2022-11-12T17:32:44.414Z,10.16
2022-11-12T17:35:36.102Z,11.04
2022-11-12T17:38:34.384Z,10.13
2022-11-12T17:41:28.411Z,12.47
2022-11-12T17:51:16.385Z,12.54
2022-11-12T17:54:08.055Z,11.75
2022-11-12T17:57:08.409Z,10.23
2022-11-12T18:00:00.206Z,9.71
2022-11-12T18:02:59.688Z,9.00
2022-11-12T18:05:59.228Z,9.43
2022-11-12T18:19:15.358Z,15.49
2022-11-12T18:22:13.408Z,12.08
2022-11-12T18:25:07.357Z,10.21
2022-11-12T18:28:05.400Z,8.89
2022-11-12T18:30:59.224Z,9.00
2022-11-12T18:44:15.358Z,12.22
2022-11-12T18:47:13.392Z,15.61
2022-11-12T18:50:08.766Z,16.29
2022-11-12T18:53:07.379Z,17.21
2022-11-12T18:56:03.691Z,16.02
2022-11-12T18:59:01.399Z,13.36
2022-11-12T19:12:32.397Z,9.62
2022-11-12T19:15:08.088Z,9.85
2022-11-12T19:18:07.372Z,9.91
2022-11-12T19:21:04.054Z,9.93
2022-11-12T19:24:02.387Z,10.17
2022-11-12T19:37:48.395Z,11.64
2022-11-12T19:40:40.330Z,11.33
2022-11-12T19:43:39.370Z,11.40
2022-11-12T19:46:31.441Z,11.58
2022-11-12T19:49:29.379Z,11.39
2022-11-12T20:06:28.364Z,14.63
2022-11-12T20:09:27.109Z,14.83
2022-11-12T20:12:19.335Z,14.62
2022-11-12T20:15:18.390Z,14.46
2022-11-12T20:18:10.513Z,14.68
2022-11-12T20:21:08.383Z,14.70
2022-11-12T20:31:17.330Z,14.84
2022-11-12T20:34:17.371Z,14.11
2022-11-12T20:37:09.146Z,13.91
2022-11-12T20:40:07.394Z,13.81
2022-11-12T20:42:59.248Z,13.98
2022-11-12T20:45:58.373Z,14.71
2022-11-12T20:59:28.380Z,14.86
2022-11-12T21:02:20.225Z,14.72
2022-11-12T21:05:19.409Z,15.94
2022-11-12T21:08:11.442Z,17.56
2022-11-12T21:11:13.451Z,17.94
2022-11-12T21:24:43.410Z,19.50
2022-11-12T21:27:35.065Z,19.95
2022-11-12T21:30:34.368Z,20.01
2022-11-12T21:33:26.266Z,19.73
2022-11-12T21:36:26.386Z,20.30
2022-11-12T21:39:18.242Z,20.26
2022-11-12T21:52:33.337Z,20.55
2022-11-12T21:55:31.338Z,19.92
2022-11-12T21:58:23.230Z,20.38
2022-11-12T22:01:25.394Z,20.73
2022-11-12T22:04:18.470Z,20.66
2022-11-12T22:18:12.235Z,21.07
2022-11-12T22:21:15.363Z,21.61
2022-11-12T22:24:09.169Z,21.21
2022-11-12T22:27:08.951Z,21.45
2022-11-12T22:30:01.040Z,21.33
2022-11-12T22:46:42.369Z,21.03
2022-11-12T22:49:34.041Z,21.31
2022-11-12T22:52:32.340Z,21.91
2022-11-12T22:55:24.205Z,21.54
2022-11-12T22:58:22.344Z,22.34
2022-11-12T23:01:21.319Z,22.01
2022-11-12T23:11:38.365Z,21.83
2022-11-12T23:14:30.044Z,22.60
2022-11-12T23:17:29.653Z,22.02
2022-11-12T23:20:21.230Z,22.44
2022-11-12T23:23:20.364Z,22.71
2022-11-12T23:25:53.576Z,21.91
2022-11-12T23:39:08.308Z,23.61
2022-11-12T23:42:06.356Z,24.40
2022-11-12T23:44:58.065Z,23.41
2022-11-12T23:48:02.377Z,23.47
2022-11-12T23:51:02.742Z,23.05
